sensor_id;sensor_type;location;lat;lon;timestamp;temperature;humidity
19847;DHT22;10084;50.518;8.588;2023-04-24T06:02:20;18.10;96.50
19847;DHT22;10084;50.518;8.588;2023-04-24T06:04:46;18.20;93.50
19847;DHT22;10084;50.518;8.588;2023-04-24T06:07:12;18.30;93.00
19847;DHT22;10084;50.518;8.588;2023-04-24T06:09:38;18.30;92.70
19847;DHT22;10084;50.518;8.588;2023-04-24T06:12:04;18.20;92.40
19847;DHT22;10084;50.518;8.588;2023-04-24T06:14:44;18.20;92.30
19847;DHT22;10084;50.518;8.588;2023-04-24T06:17:24;18.40;92.20
19847;DHT22;10084;50.518;8.588;2023-04-24T06:19:50;18.60;91.90
19847;DHT22;10084;50.518;8.588;2023-04-24T06:22:16;18.70;91.60
19847;DHT22;10084;50.518;8.588;2023-04-24T06:24:41;18.80;91.30
19847;DHT22;10084;50.518;8.588;2023-04-24T06:27:07;18.90;91.10
19847;DHT22;10084;50.518;8.588;2023-04-24T06:29:33;19.00;91.00
19847;DHT22;10084;50.518;8.588;2023-04-24T07:01:41;23.20;83.50
19847;DHT22;10084;50.518;8.588;2023-04-24T07:04:09;23.60;82.60
19847;DHT22;10084;50.518;8.588;2023-04-24T07:09:02;23.90;86.00
19847;DHT22;10084;50.518;8.588;2023-04-24T07:11:28;26.10;86.10
19847;DHT22;10084;50.518;8.588;2023-04-24T08:42:05;18.70;76.50
19847;DHT22;10084;50.518;8.588;2023-04-24T08:44:34;18.20;75.00
19847;DHT22;10084;50.518;8.588;2023-04-24T08:47:04;17.90;75.90
19847;DHT22;10084;50.518;8.588;2023-04-24T08:54:25;17.30;78.20
19847;DHT22;10084;50.518;8.588;2023-04-24T08:56:53;17.00;78.90
19847;DHT22;10084;50.518;8.588;2023-04-24T08:59:23;16.50;78.00
19847;DHT22;10084;50.518;8.588;2023-04-24T09:01:49;16.20;78.20
19847;DHT22;10084;50.518;8.588;2023-04-24T09:04:17;15.90;78.30
19847;DHT22;10084;50.518;8.588;2023-04-24T09:06:45;15.60;79.20
19847;DHT22;10084;50.518;8.588;2023-04-24T09:09:11;15.40;80.10
19847;DHT22;10084;50.518;8.588;2023-04-24T09:36:31;17.60;81.30
19847;DHT22;10084;50.518;8.588;2023-04-24T09:39:01;17.90;80.20
19847;DHT22;10084;50.518;8.588;2023-04-24T09:41:28;18.20;80.00
19847;DHT22;10084;50.518;8.588;2023-04-24T09:43:58;18.90;79.00
19847;DHT22;10084;50.518;8.588;2023-04-24T09:46:30;19.20;78.20
19847;DHT22;10084;50.518;8.588;2023-04-24T09:49:12;19.20;78.00
19847;DHT22;10084;50.518;8.588;2023-04-24T09:51:38;19.00;77.80
19847;DHT22;10084;50.518;8.588;2023-04-24T09:54:14;18.70;77.80
19847;DHT22;10084;50.518;8.588;2023-04-24T09:56:43;18.40;78.20
19847;DHT22;10084;50.518;8.588;2023-04-24T09:59:09;18.00;78.10
19847;DHT22;10084;50.518;8.588;2023-04-24T10:01:35;17.70;78.50
19847;DHT22;10084;50.518;8.588;2023-04-24T10:04:01;17.30;78.40
19847;DHT22;10084;50.518;8.588;2023-04-24T10:36:29;14.20;85.40
19847;DHT22;10084;50.518;8.588;2023-04-24T10:41:25;14.40;85.00
19847;DHT22;10084;50.518;8.588;2023-04-24T10:44:11;16.20;82.20
19847;DHT22;10084;50.518;8.588;2023-04-24T10:51:50;19.60;85.80
19847;DHT22;10084;50.518;8.588;2023-04-24T10:54:33;19.60;81.20
19847;DHT22;10084;50.518;8.588;2023-04-24T10:59:52;20.40;81.50
19847;DHT22;10084;50.518;8.588;2023-04-24T11:02:38;21.10;81.40
19847;DHT22;10084;50.518;8.588;2023-04-24T11:05:06;21.60;79.00
19847;DHT22;10084;50.518;8.588;2023-04-24T11:08:09;21.40;79.00
19847;DHT22;10084;50.518;8.588;2023-04-24T11:10:40;20.90;77.40
19847;DHT22;10084;50.518;8.588;2023-04-24T11:13:08;20.20;77.10
19847;DHT22;10084;50.518;8.588;2023-04-24T11:15:34;19.70;76.80
19847;DHT22;10084;50.518;8.588;2023-04-24T11:18:00;19.20;77.10
19847;DHT22;10084;50.518;8.588;2023-04-24T11:20:26;18.80;78.20
19847;DHT22;10084;50.518;8.588;2023-04-24T11:22:53;18.40;80.00
19847;DHT22;10084;50.518;8.588;2023-04-24T11:25:21;18.10;81.80
19847;DHT22;10084;50.518;8.588;2023-04-24T11:27:49;17.90;81.50
19847;DHT22;10084;50.518;8.588;2023-04-24T11:30:20;17.70;80.70
19847;DHT22;10084;50.518;8.588;2023-04-24T11:32:50;17.70;81.00
19847;DHT22;10084;50.518;8.588;2023-04-24T11:35:20;17.80;80.90
19847;DHT22;10084;50.518;8.588;2023-04-24T11:37:51;17.70;80.70
19847;DHT22;10084;50.518;8.588;2023-04-24T11:40:20;17.40;80.60
19847;DHT22;10084;50.518;8.588;2023-04-24T11:47:43;16.40;86.20
19847;DHT22;10084;50.518;8.588;2023-04-24T11:50:16;16.30;83.70
19847;DHT22;10084;50.518;8.588;2023-04-24T11:52:48;15.90;80.80
19847;DHT22;10084;50.518;8.588;2023-04-24T12:03:11;14.70;87.10
19847;DHT22;10084;50.518;8.588;2023-04-24T12:05:37;14.60;88.70
19847;DHT22;10084;50.518;8.588;2023-04-24T12:12:58;14.20;88.00
19847;DHT22;10084;50.518;8.588;2023-04-24T12:15:24;14.20;88.80
19847;DHT22;10084;50.518;8.588;2023-04-24T12:17:51;14.30;89.50
19847;DHT22;10084;50.518;8.588;2023-04-24T12:40:10;14.50;88.50
19847;DHT22;10084;50.518;8.588;2023-04-24T12:42:50;14.40;86.40
19847;DHT22;10084;50.518;8.588;2023-04-24T12:45:17;14.40;86.90
19847;DHT22;10084;50.518;8.588;2023-04-24T12:47:45;14.40;87.00
19847;DHT22;10084;50.518;8.588;2023-04-24T12:50:12;14.40;87.10
19847;DHT22;10084;50.518;8.588;2023-04-24T12:52:38;14.40;87.00
19847;DHT22;10084;50.518;8.588;2023-04-24T12:55:05;14.50;86.90
19847;DHT22;10084;50.518;8.588;2023-04-24T12:57:34;14.60;87.00
19847;DHT22;10084;50.518;8.588;2023-04-24T13:00:01;14.80;86.80
19847;DHT22;10084;50.518;8.588;2023-04-24T13:02:29;15.10;86.30
19847;DHT22;10084;50.518;8.588;2023-04-24T13:04:56;15.40;85.80
19847;DHT22;10084;50.518;8.588;2023-04-24T13:07:22;15.70;85.30
19847;DHT22;10084;50.518;8.588;2023-04-24T13:09:49;15.90;84.80
19847;DHT22;10084;50.518;8.588;2023-04-24T13:12:15;16.00;84.50
19847;DHT22;10084;50.518;8.588;2023-04-24T13:14:41;15.90;84.30
19847;DHT22;10084;50.518;8.588;2023-04-24T13:17:07;15.90;84.40
19847;DHT22;10084;50.518;8.588;2023-04-24T13:19:37;15.80;84.50
19847;DHT22;10084;50.518;8.588;2023-04-24T13:22:03;15.60;84.80
19847;DHT22;10084;50.518;8.588;2023-04-24T13:24:29;15.30;84.90
19847;DHT22;10084;50.518;8.588;2023-04-24T13:26:56;15.20;85.00
19847;DHT22;10084;50.518;8.588;2023-04-24T13:29:23;15.10;85.30
19847;DHT22;10084;50.518;8.588;2023-04-24T13:31:54;15.00;85.60
19847;DHT22;10084;50.518;8.588;2023-04-24T13:34:24;14.90;85.80
19847;DHT22;10084;50.518;8.588;2023-04-24T13:36:55;14.70;86.30
19847;DHT22;10084;50.518;8.588;2023-04-24T13:44:16;14.30;88.10
19847;DHT22;10084;50.518;8.588;2023-04-24T13:49:10;13.70;88.80
19847;DHT22;10084;50.518;8.588;2023-04-24T13:51:36;14.00;89.20
19847;DHT22;10084;50.518;8.588;2023-04-24T13:54:02;14.20;89.40
19847;DHT22;10084;50.518;8.588;2023-04-24T13:56:28;14.20;89.60
19847;DHT22;10084;50.518;8.588;2023-04-24T13:58:53;14.30;84.00
19847;DHT22;10084;50.518;8.588;2023-04-24T14:01:19;14.60;83.90
19847;DHT22;10084;50.518;8.588;2023-04-24T14:03:50;14.70;83.40
19847;DHT22;10084;50.518;8.588;2023-04-24T14:06:16;14.70;83.20
19847;DHT22;10084;50.518;8.588;2023-04-24T14:08:44;14.70;83.30
19847;DHT22;10084;50.518;8.588;2023-04-24T14:11:10;14.80;83.30
19847;DHT22;10084;50.518;8.588;2023-04-24T14:13:41;14.80;83.20
19847;DHT22;10084;50.518;8.588;2023-04-24T14:16:07;14.80;83.40
19847;DHT22;10084;50.518;8.588;2023-04-24T14:18:33;14.80;83.80
19847;DHT22;10084;50.518;8.588;2023-04-24T14:20:59;14.70;84.00
19847;DHT22;10084;50.518;8.588;2023-04-24T14:23:26;14.60;84.10
19847;DHT22;10084;50.518;8.588;2023-04-24T14:25:52;14.50;84.00
19847;DHT22;10084;50.518;8.588;2023-04-24T14:28:19;14.30;84.50
19847;DHT22;10084;50.518;8.588;2023-04-24T14:30:46;14.30;84.50
19847;DHT22;10084;50.518;8.588;2023-04-24T14:33:12;14.30;84.40
19847;DHT22;10084;50.518;8.588;2023-04-24T14:35:39;14.30;84.50
19847;DHT22;10084;50.518;8.588;2023-04-24T14:38:05;14.30;84.60
19847;DHT22;10084;50.518;8.588;2023-04-24T14:40:31;14.30;84.80
19847;DHT22;10084;50.518;8.588;2023-04-24T14:42:58;14.30;85.10
19847;DHT22;10084;50.518;8.588;2023-04-24T14:45:27;14.30;85.10
19847;DHT22;10084;50.518;8.588;2023-04-24T14:47:53;14.10;87.40
19847;DHT22;10084;50.518;8.588;2023-04-24T14:50:20;14.20;90.00
19847;DHT22;10084;50.518;8.588;2023-04-24T14:52:46;14.20;87.60
19847;DHT22;10084;50.518;8.588;2023-04-24T14:55:12;14.20;88.40
19847;DHT22;10084;50.518;8.588;2023-04-24T14:57:37;14.10;88.20
19847;DHT22;10084;50.518;8.588;2023-04-24T15:00:04;13.40;83.60
19847;DHT22;10084;50.518;8.588;2023-04-24T15:02:33;14.20;84.10
19847;DHT22;10084;50.518;8.588;2023-04-24T15:04:59;14.20;83.80
19847;DHT22;10084;50.518;8.588;2023-04-24T15:07:25;14.20;83.40
19847;DHT22;10084;50.518;8.588;2023-04-24T15:09:51;14.20;83.40
19847;DHT22;10084;50.518;8.588;2023-04-24T15:12:16;14.20;83.30
19847;DHT22;10084;50.518;8.588;2023-04-24T15:14:42;14.10;83.30
19847;DHT22;10084;50.518;8.588;2023-04-24T15:17:08;13.80;82.20
19847;DHT22;10084;50.518;8.588;2023-04-24T15:19:34;13.50;81.70
19847;DHT22;10084;50.518;8.588;2023-04-24T15:21:59;13.30;82.00
19847;DHT22;10084;50.518;8.588;2023-04-24T15:24:25;13.30;82.70
19847;DHT22;10084;50.518;8.588;2023-04-24T15:26:51;13.30;82.90
19847;DHT22;10084;50.518;8.588;2023-04-24T15:29:17;13.30;83.20
19847;DHT22;10084;50.518;8.588;2023-04-24T15:31:42;13.40;83.50
19847;DHT22;10084;50.518;8.588;2023-04-24T15:34:08;13.40;83.60
19847;DHT22;10084;50.518;8.588;2023-04-24T15:36:34;13.50;83.80
19847;DHT22;10084;50.518;8.588;2023-04-24T15:39:04;13.40;84.00
19847;DHT22;10084;50.518;8.588;2023-04-24T15:41:29;13.40;84.00
19847;DHT22;10084;50.518;8.588;2023-04-24T15:43:57;13.30;84.50
19847;DHT22;10084;50.518;8.588;2023-04-24T15:46:23;13.10;92.50
19847;DHT22;10084;50.518;8.588;2023-04-24T15:48:48;13.30;81.40
19847;DHT22;10084;50.518;8.588;2023-04-24T15:51:14;13.30;89.60
19847;DHT22;10084;50.518;8.588;2023-04-24T15:56:07;13.20;88.90
19847;DHT22;10084;50.518;8.588;2023-04-24T15:58:32;13.20;85.20
19847;DHT22;10084;50.518;8.588;2023-04-24T16:00:59;13.20;85.40
19847;DHT22;10084;50.518;8.588;2023-04-24T16:03:25;13.20;86.20
19847;DHT22;10084;50.518;8.588;2023-04-24T16:05:52;13.20;86.70
19847;DHT22;10084;50.518;8.588;2023-04-24T16:08:17;13.30;91.90
19847;DHT22;10084;50.518;8.588;2023-04-24T16:10:46;13.20;81.90
19847;DHT22;10084;50.518;8.588;2023-04-24T16:13:12;13.40;80.00
19847;DHT22;10084;50.518;8.588;2023-04-24T16:15:38;13.40;79.90
19847;DHT22;10084;50.518;8.588;2023-04-24T16:18:04;13.30;79.80
19847;DHT22;10084;50.518;8.588;2023-04-24T16:20:30;13.30;79.80
19847;DHT22;10084;50.518;8.588;2023-04-24T16:22:56;13.20;79.90
19847;DHT22;10084;50.518;8.588;2023-04-24T16:25:21;13.20;80.20
19847;DHT22;10084;50.518;8.588;2023-04-24T16:27:48;13.10;80.80
19847;DHT22;10084;50.518;8.588;2023-04-24T16:30:15;13.10;88.30
19847;DHT22;10084;50.518;8.588;2023-04-24T16:45:05;13.40;90.50
19847;DHT22;10084;50.518;8.588;2023-04-24T16:47:31;13.50;82.00
19847;DHT22;10084;50.518;8.588;2023-04-24T16:49:57;13.50;81.00
19847;DHT22;10084;50.518;8.588;2023-04-24T16:52:23;13.50;80.70
19847;DHT22;10084;50.518;8.588;2023-04-24T16:54:48;13.40;80.40
19847;DHT22;10084;50.518;8.588;2023-04-24T16:57:14;13.30;80.30
19847;DHT22;10084;50.518;8.588;2023-04-24T16:59:40;13.20;80.30
19847;DHT22;10084;50.518;8.588;2023-04-24T17:02:06;13.10;81.50
19847;DHT22;10084;50.518;8.588;2023-04-24T17:04:32;12.90;82.70
19847;DHT22;10084;50.518;8.588;2023-04-24T17:07:00;12.80;83.00
19847;DHT22;10084;50.518;8.588;2023-04-24T17:09:26;12.80;83.60
19847;DHT22;10084;50.518;8.588;2023-04-24T17:11:52;12.70;84.10
19847;DHT22;10084;50.518;8.588;2023-04-24T17:14:18;12.70;83.40
19847;DHT22;10084;50.518;8.588;2023-04-24T17:16:43;12.70;83.40
19847;DHT22;10084;50.518;8.588;2023-04-24T17:19:10;12.70;83.80
19847;DHT22;10084;50.518;8.588;2023-04-24T17:21:36;12.60;88.30
19847;DHT22;10084;50.518;8.588;2023-04-24T17:24:02;12.50;83.50
19847;DHT22;10084;50.518;8.588;2023-04-24T17:26:28;12.40;84.00
19847;DHT22;10084;50.518;8.588;2023-04-24T17:28:55;12.30;84.30
19847;DHT22;10084;50.518;8.588;2023-04-24T17:31:21;12.30;84.90
19847;DHT22;10084;50.518;8.588;2023-04-24T17:33:47;12.20;85.20
19847;DHT22;10084;50.518;8.588;2023-04-24T17:36:13;12.20;85.70
19847;DHT22;10084;50.518;8.588;2023-04-24T17:38:39;12.10;86.80
19847;DHT22;10084;50.518;8.588;2023-04-24T17:41:05;12.10;87.80
19847;DHT22;10084;50.518;8.588;2023-04-24T17:43:31;12.00;87.50
19847;DHT22;10084;50.518;8.588;2023-04-24T17:45:57;11.90;87.60
19847;DHT22;10084;50.518;8.588;2023-04-24T17:48:24;11.80;88.60
19847;DHT22;10084;50.518;8.588;2023-04-24T17:50:51;11.80;89.80
19847;DHT22;10084;50.518;8.588;2023-04-24T17:53:17;11.70;88.30
19847;DHT22;10084;50.518;8.588;2023-04-24T17:55:44;11.70;88.30
19847;DHT22;10084;50.518;8.588;2023-04-24T17:58:11;11.70;88.20
19847;DHT22;10084;50.518;8.588;2023-04-24T18:00:37;11.70;88.50
19847;DHT22;10084;50.518;8.588;2023-04-24T18:03:05;11.70;88.70
19847;DHT22;10084;50.518;8.588;2023-04-24T18:05:33;11.70;88.70
19847;DHT22;10084;50.518;8.588;2023-04-24T18:07:59;11.80;88.70
19847;DHT22;10084;50.518;8.588;2023-04-24T18:10:27;11.80;88.80
19847;DHT22;10084;50.518;8.588;2023-04-24T18:12:53;11.80;88.80
19847;DHT22;10084;50.518;8.588;2023-04-24T18:15:20;11.80;88.80
19847;DHT22;10084;50.518;8.588;2023-04-24T18:17:46;11.80;88.80
19847;DHT22;10084;50.518;8.588;2023-04-24T18:20:13;11.80;88.90
19847;DHT22;10084;50.518;8.588;2023-04-24T18:22:40;11.80;89.00
19847;DHT22;10084;50.518;8.588;2023-04-24T18:25:07;11.80;89.00
19847;DHT22;10084;50.518;8.588;2023-04-24T18:27:33;11.80;89.10
19847;DHT22;10084;50.518;8.588;2023-04-24T18:29:58;11.80;89.20
19847;DHT22;10084;50.518;8.588;2023-04-24T18:32:25;11.80;89.20
19847;DHT22;10084;50.518;8.588;2023-04-24T18:34:51;11.80;89.30
19847;DHT22;10084;50.518;8.588;2023-04-24T18:37:17;11.80;89.30
19847;DHT22;10084;50.518;8.588;2023-04-24T18:39:43;11.80;89.30
19847;DHT22;10084;50.518;8.588;2023-04-24T18:42:09;11.80;89.30
19847;DHT22;10084;50.518;8.588;2023-04-24T18:44:35;11.80;89.40
19847;DHT22;10084;50.518;8.588;2023-04-24T18:47:06;11.80;90.00
19847;DHT22;10084;50.518;8.588;2023-04-24T18:49:32;11.90;89.40
19847;DHT22;10084;50.518;8.588;2023-04-24T18:51:58;11.80;89.40
19847;DHT22;10084;50.518;8.588;2023-04-24T18:54:23;11.80;89.50
19847;DHT22;10084;50.518;8.588;2023-04-24T18:56:49;11.80;89.50
19847;DHT22;10084;50.518;8.588;2023-04-24T18:59:16;11.80;89.70
19847;DHT22;10084;50.518;8.588;2023-04-24T19:01:42;11.80;89.70
19847;DHT22;10084;50.518;8.588;2023-04-24T19:04:08;11.80;89.60
19847;DHT22;10084;50.518;8.588;2023-04-24T19:06:34;11.80;90.10
19847;DHT22;10084;50.518;8.588;2023-04-24T19:08:59;11.80;89.80
19847;DHT22;10084;50.518;8.588;2023-04-24T19:11:25;11.80;89.90
19847;DHT22;10084;50.518;8.588;2023-04-24T19:13:51;11.80;89.90
19847;DHT22;10084;50.518;8.588;2023-04-24T19:16:17;11.80;89.90
19847;DHT22;10084;50.518;8.588;2023-04-24T19:18:43;11.80;90.00
19847;DHT22;10084;50.518;8.588;2023-04-24T19:21:09;11.80;90.00
19847;DHT22;10084;50.518;8.588;2023-04-24T19:23:34;11.70;90.00
19847;DHT22;10084;50.518;8.588;2023-04-24T19:26:04;11.70;90.00
19847;DHT22;10084;50.518;8.588;2023-04-24T19:28:30;11.70;90.40
19847;DHT22;10084;50.518;8.588;2023-04-24T19:30:56;11.70;90.10
19847;DHT22;10084;50.518;8.588;2023-04-24T19:33:26;11.70;90.10
19847;DHT22;10084;50.518;8.588;2023-04-24T19:35:52;11.70;90.40
19847;DHT22;10084;50.518;8.588;2023-04-24T19:38:18;11.70;90.20
19847;DHT22;10084;50.518;8.588;2023-04-24T19:40:44;11.70;90.30
19847;DHT22;10084;50.518;8.588;2023-04-24T19:43:10;11.70;90.30
19847;DHT22;10084;50.518;8.588;2023-04-24T19:45:36;11.80;90.40
19847;DHT22;10084;50.518;8.588;2023-04-24T19:48:02;11.80;90.40
19847;DHT22;10084;50.518;8.588;2023-04-24T19:50:27;11.70;90.40
19847;DHT22;10084;50.518;8.588;2023-04-24T19:52:53;11.70;90.40
19847;DHT22;10084;50.518;8.588;2023-04-24T19:55:19;11.70;90.50
19847;DHT22;10084;50.518;8.588;2023-04-24T19:57:45;11.80;90.60
19847;DHT22;10084;50.518;8.588;2023-04-24T20:00:11;11.80;90.60
19847;DHT22;10084;50.518;8.588;2023-04-24T20:02:37;11.70;90.60
19847;DHT22;10084;50.518;8.588;2023-04-24T20:05:03;11.80;90.60
19847;DHT22;10084;50.518;8.588;2023-04-24T20:07:29;11.70;90.70
19847;DHT22;10084;50.518;8.588;2023-04-24T20:09:55;11.70;90.70
19847;DHT22;10084;50.518;8.588;2023-04-24T20:12:21;11.70;90.70
19847;DHT22;10084;50.518;8.588;2023-04-24T20:14:47;11.70;90.80
19847;DHT22;10084;50.518;8.588;2023-04-24T20:17:14;11.60;90.80
19847;DHT22;10084;50.518;8.588;2023-04-24T20:19:39;11.60;91.00
19847;DHT22;10084;50.518;8.588;2023-04-24T20:22:06;11.50;91.40
19847;DHT22;10084;50.518;8.588;2023-04-24T20:24:32;11.50;92.80
19847;DHT22;10084;50.518;8.588;2023-04-24T20:29:26;11.30;94.70
19847;DHT22;10084;50.518;8.588;2023-04-24T20:31:52;11.30;92.60
19847;DHT22;10084;50.518;8.588;2023-04-24T20:34:19;11.20;94.80
19847;DHT22;10084;50.518;8.588;2023-04-24T20:36:44;11.20;95.00
19847;DHT22;10084;50.518;8.588;2023-04-24T20:44:06;11.10;94.00
19847;DHT22;10084;50.518;8.588;2023-04-24T20:46:32;11.10;94.10
19847;DHT22;10084;50.518;8.588;2023-04-24T20:48:59;11.10;94.20
19847;DHT22;10084;50.518;8.588;2023-04-24T20:51:25;11.00;94.40
19847;DHT22;10084;50.518;8.588;2023-04-24T20:53:50;11.00;94.50
19847;DHT22;10084;50.518;8.588;2023-04-24T20:56:17;11.00;94.80
19847;DHT22;10084;50.518;8.588;2023-04-24T20:58:48;11.00;95.20
19847;DHT22;10084;50.518;8.588;2023-04-24T21:11:06;10.90;95.20
19847;DHT22;10084;50.518;8.588;2023-04-24T21:13:31;10.90;95.20
19847;DHT22;10084;50.518;8.588;2023-04-24T21:15:57;10.90;95.30
19847;DHT22;10084;50.518;8.588;2023-04-24T21:18:23;10.80;95.20
19847;DHT22;10084;50.518;8.588;2023-04-24T21:20:50;10.80;95.20
19847;DHT22;10084;50.518;8.588;2023-04-24T21:23:17;10.80;95.30
19847;DHT22;10084;50.518;8.588;2023-04-24T21:25:43;10.80;95.20
19847;DHT22;10084;50.518;8.588;2023-04-24T21:28:09;10.80;95.20
19847;DHT22;10084;50.518;8.588;2023-04-24T21:30:35;10.80;95.20
19847;DHT22;10084;50.518;8.588;2023-04-24T21:33:01;10.80;95.30
19847;DHT22;10084;50.518;8.588;2023-04-24T21:35:27;10.80;95.30
19847;DHT22;10084;50.518;8.588;2023-04-24T21:37:53;10.80;95.20
19847;DHT22;10084;50.518;8.588;2023-04-24T21:40:19;10.80;95.20
19847;DHT22;10084;50.518;8.588;2023-04-24T21:42:45;10.80;95.50
19847;DHT22;10084;50.518;8.588;2023-04-24T21:45:11;10.80;95.60
19847;DHT22;10084;50.518;8.588;2023-04-24T21:47:37;10.70;95.70
19847;DHT22;10084;50.518;8.588;2023-04-24T21:50:03;10.70;95.60
19847;DHT22;10084;50.518;8.588;2023-04-24T21:52:30;10.70;95.70
19847;DHT22;10084;50.518;8.588;2023-04-24T21:54:55;10.70;95.80
19847;DHT22;10084;50.518;8.588;2023-04-24T21:57:21;10.70;95.70
19847;DHT22;10084;50.518;8.588;2023-04-24T21:59:47;10.70;95.80
19847;DHT22;10084;50.518;8.588;2023-04-24T22:02:12;10.70;95.80
19847;DHT22;10084;50.518;8.588;2023-04-24T22:04:38;10.70;95.80
19847;DHT22;10084;50.518;8.588;2023-04-24T22:07:04;10.70;96.00
19847;DHT22;10084;50.518;8.588;2023-04-24T22:09:29;10.70;96.10
19847;DHT22;10084;50.518;8.588;2023-04-24T22:14:22;10.60;96.10
19847;DHT22;10084;50.518;8.588;2023-04-24T22:16:48;10.60;96.20
19847;DHT22;10084;50.518;8.588;2023-04-24T22:19:14;10.60;96.10
19847;DHT22;10084;50.518;8.588;2023-04-24T22:21:40;10.60;96.10
19847;DHT22;10084;50.518;8.588;2023-04-24T22:24:07;10.60;96.20
19847;DHT22;10084;50.518;8.588;2023-04-24T22:26:33;10.60;96.30
19847;DHT22;10084;50.518;8.588;2023-04-24T22:29:00;10.50;96.10
19847;DHT22;10084;50.518;8.588;2023-04-24T22:36:18;10.50;94.30
19847;DHT22;10084;50.518;8.588;2023-04-24T22:38:44;10.50;94.60
19847;DHT22;10084;50.518;8.588;2023-04-24T22:41:10;10.50;94.50
19847;DHT22;10084;50.518;8.588;2023-04-24T22:43:36;10.50;94.50
19847;DHT22;10084;50.518;8.588;2023-04-24T22:46:01;10.50;94.50
19847;DHT22;10084;50.518;8.588;2023-04-24T22:48:27;10.50;94.50
19847;DHT22;10084;50.518;8.588;2023-04-24T22:50:53;10.50;94.60
19847;DHT22;10084;50.518;8.588;2023-04-24T22:53:19;10.40;94.50
19847;DHT22;10084;50.518;8.588;2023-04-24T22:55:45;10.40;94.50
19847;DHT22;10084;50.518;8.588;2023-04-24T22:58:11;10.40;94.60
19847;DHT22;10084;50.518;8.588;2023-04-24T23:00:37;10.40;94.60
19847;DHT22;10084;50.518;8.588;2023-04-24T23:03:03;10.40;94.60
19847;DHT22;10084;50.518;8.588;2023-04-24T23:05:29;10.40;95.00
19847;DHT22;10084;50.518;8.588;2023-04-24T23:07:55;10.40;94.90
19847;DHT22;10084;50.518;8.588;2023-04-24T23:10:21;10.30;94.90
19847;DHT22;10084;50.518;8.588;2023-04-24T23:12:47;10.30;95.00
19847;DHT22;10084;50.518;8.588;2023-04-24T23:15:13;10.30;95.30
19847;DHT22;10084;50.518;8.588;2023-04-24T23:17:39;10.30;95.20
19847;DHT22;10084;50.518;8.588;2023-04-24T23:20:06;10.30;92.80
19847;DHT22;10084;50.518;8.588;2023-04-24T23:22:32;10.30;92.60
19847;DHT22;10084;50.518;8.588;2023-04-24T23:24:58;10.30;92.50
19847;DHT22;10084;50.518;8.588;2023-04-24T23:27:24;10.30;92.50
19847;DHT22;10084;50.518;8.588;2023-04-24T23:29:49;10.30;92.70
19847;DHT22;10084;50.518;8.588;2023-04-24T23:32:16;10.20;92.60
19847;DHT22;10084;50.518;8.588;2023-04-24T23:34:41;10.20;92.70
19847;DHT22;10084;50.518;8.588;2023-04-24T23:37:07;10.20;92.80
19847;DHT22;10084;50.518;8.588;2023-04-24T23:39:33;10.20;92.70
19847;DHT22;10084;50.518;8.588;2023-04-24T23:41:59;10.20;92.70
19847;DHT22;10084;50.518;8.588;2023-04-24T23:44:28;10.20;93.00
19847;DHT22;10084;50.518;8.588;2023-04-24T23:46:54;10.10;93.00
19847;DHT22;10084;50.518;8.588;2023-04-24T23:49:21;10.20;93.20
19847;DHT22;10084;50.518;8.588;2023-04-24T23:51:47;10.20;93.30
19847;DHT22;10084;50.518;8.588;2023-04-24T23:54:13;10.20;93.80
19847;DHT22;10084;50.518;8.588;2023-04-24T23:56:39;10.00;94.60
19847;DHT22;10084;50.518;8.588;2023-04-24T23:59:05;10.10;92.10
